Погода Дубовкана 2 недели

Брестская область, Белоруссия

19 июля-01 августа
  • 19июля
    Сегодня
    +14°
    +26°
    Ясно и безоблачно
    ВремяПогодаТемператураВлажностьДавлениеВетер, м/сВероятность осадков
    00:00Ясно и безоблачно+19°C81 %752 мм2.5 м/с2 %
    03:00Ясно и безоблачно+17°C89 %752 мм2.3 м/с2 %
    06:00Ясно и безоблачно+16°C85 %752 мм3.2 м/с2 %
    09:00Ясно и безоблачно+21°C72 %753 мм2.6 м/с2 %
    12:00Практически безоблачно+24°C57 %752 мм3.9 м/с5 %
    15:00Ясно и безоблачно+26°C48 %751 мм4.5 м/с1 %
    18:00Ясно и безоблачно+25°C48 %750 мм4.5 м/с2 %
    21:00Ясно и безоблачно+22°C64 %750 мм2.8 м/с2 %
  • 20июля
    Суббота
    +13°
    +25°
    Ясно и безоблачно
    ВремяПогодаТемператураВлажностьДавлениеВетер, м/сВероятность осадков
    00:00Ясно и безоблачно+17°C75 %750 мм2.2 м/с2 %
    03:00Ясно и безоблачно+15°C83 %749 мм1.8 м/с2 %
    06:00Ясно и безоблачно+14°C82 %749 мм2.5 м/с2 %
    09:00Ясно и безоблачно+20°C68 %749 мм2.2 м/с2 %
    12:00Облачно с прояснениями+23°C53 %748 мм3.6 м/с2 %
    15:00Ясно и безоблачно+24°C42 %748 мм3.4 м/с2 %
    18:00Небольшая облачность+24°C45 %747 мм3.0 м/с2 %
    21:00Небольшая облачность+21°C70 %747 мм2.0 м/с2 %
  • 21июля
    Воскресенье
    +14°
    +26°
    Ясно и безоблачно
    ВремяПогодаТемператураВлажностьДавлениеВетер, м/сВероятность осадков
    00:00Облачно с прояснениями+16°C76 %746 мм2.1 м/с2 %
    03:00Ясно и безоблачно+14°C85 %746 мм2.2 м/с2 %
    06:00Ясно и безоблачно+13°C89 %746 мм1.6 м/с2 %
    09:00Практически безоблачно+20°C68 %746 мм0.4 м/с2 %
    12:00Практически безоблачно+24°C47 %746 мм0.4 м/с5 %
    15:00Ясно и безоблачно+26°C41 %746 мм0.3 м/с19 %
    18:00Небольшая облачность+26°C40 %745 мм0.8 м/с9 %
    21:00Ясно и безоблачно+23°C57 %745 мм2.1 м/с2 %
  • 22июля
    Понедельник
    +15°
    +28°
    Ясно и безоблачно
    ВремяПогодаТемператураВлажностьДавлениеВетер, м/сВероятность осадков
    00:00Ясно и безоблачно+18°C71 %745 мм1.9 м/с2 %
    03:00Ясно и безоблачно+15°C84 %745 мм2.2 м/с2 %
    06:00Ясно и безоблачно+15°C84 %745 мм1.3 м/с2 %
    09:00Ясно и безоблачно+22°C63 %746 мм0.7 м/с2 %
    12:00Практически безоблачно+26°C41 %746 мм2.5 м/с9 %
    15:00Ясно и безоблачно+27°C40 %746 мм2.7 м/с21 %
    18:00Практически безоблачно+27°C42 %746 мм2.3 м/с20 %
    21:00Ясно и безоблачно+24°C61 %746 мм1.6 м/с10 %
  • 23июля
    Вторник
    +17°
    +28°
    Практически безоблачно
    ВремяПогодаТемператураВлажностьДавлениеВетер, м/сВероятность осадков
    00:00Ясно и безоблачно+19°C74 %746 мм1.9 м/с3 %
    03:00Ясно и безоблачно+17°C84 %746 мм1.5 м/с2 %
    06:00Ясно и безоблачно+16°C89 %747 мм1.2 м/с7 %
    09:00Ясно и безоблачно+23°C63 %747 мм1.1 м/с11 %
    12:00Небольшая облачность+26°C46 %747 мм1.2 м/с28 %
    15:00Практически безоблачно+27°C45 %747 мм2.0 м/с41 %
    18:00Небольшая облачность+27°C48 %746 мм2.0 м/с41 %
    21:00Облачно с прояснениями+24°C66 %747 мм2.0 м/с12 %
Мы используем cookies
Соглашаюсь